sensor_id;sensor_type;location;lat;lon;timestamp;P1;durP1;ratioP1;P2;durP2;ratioP2
38132;SDS011;23948;43.252;26.572;2023-06-01T00:01:02;7.70;;;4.15;;
38132;SDS011;23948;43.252;26.572;2023-06-01T00:03:29;10.43;;;4.80;;
38132;SDS011;23948;43.252;26.572;2023-06-01T00:05:55;12.73;;;4.90;;
38132;SDS011;23948;43.252;26.572;2023-06-01T00:08:23;9.10;;;4.30;;
38132;SDS011;23948;43.252;26.572;2023-06-01T00:10:49;8.95;;;4.90;;
38132;SDS011;23948;43.252;26.572;2023-06-01T00:16:01;7.50;;;4.68;;
38132;SDS011;23948;43.252;26.572;2023-06-01T00:18:26;9.82;;;4.88;;
38132;SDS011;23948;43.252;26.572;2023-06-01T00:20:52;11.43;;;4.70;;
38132;SDS011;23948;43.252;26.572;2023-06-01T00:23:17;7.15;;;4.20;;
38132;SDS011;23948;43.252;26.572;2023-06-01T00:25:45;10.43;;;4.55;;
38132;SDS011;23948;43.252;26.572;2023-06-01T00:28:10;9.45;;;5.50;;
38132;SDS011;23948;43.252;26.572;2023-06-01T00:30:35;9.85;;;5.13;;
38132;SDS011;23948;43.252;26.572;2023-06-01T00:33:00;9.70;;;4.97;;
38132;SDS011;23948;43.252;26.572;2023-06-01T00:35:26;10.57;;;4.70;;
38132;SDS011;23948;43.252;26.572;2023-06-01T00:37:51;9.63;;;4.78;;
38132;SDS011;23948;43.252;26.572;2023-06-01T00:40:16;9.77;;;4.10;;
38132;SDS011;23948;43.252;26.572;2023-06-01T00:42:42;9.45;;;4.70;;
38132;SDS011;23948;43.252;26.572;2023-06-01T00:45:07;11.00;;;4.63;;
38132;SDS011;23948;43.252;26.572;2023-06-01T00:47:33;11.48;;;4.65;;
38132;SDS011;23948;43.252;26.572;2023-06-01T00:50:03;8.68;;;4.22;;
38132;SDS011;23948;43.252;26.572;2023-06-01T00:52:29;8.65;;;4.35;;
38132;SDS011;23948;43.252;26.572;2023-06-01T00:54:55;8.32;;;4.43;;
38132;SDS011;23948;43.252;26.572;2023-06-01T00:57:20;11.63;;;4.68;;
38132;SDS011;23948;43.252;26.572;2023-06-01T00:59:46;7.80;;;3.90;;
38132;SDS011;23948;43.252;26.572;2023-06-01T01:02:12;8.68;;;4.40;;
38132;SDS011;23948;43.252;26.572;2023-06-01T01:04:40;7.20;;;3.95;;
38132;SDS011;23948;43.252;26.572;2023-06-01T01:09:41;6.95;;;4.22;;
38132;SDS011;23948;43.252;26.572;2023-06-01T01:12:12;10.65;;;4.32;;
38132;SDS011;23948;43.252;26.572;2023-06-01T01:14:40;9.77;;;4.53;;
38132;SDS011;23948;43.252;26.572;2023-06-01T01:17:10;7.78;;;4.25;;
38132;SDS011;23948;43.252;26.572;2023-06-01T01:19:50;10.60;;;4.15;;
38132;SDS011;23948;43.252;26.572;2023-06-01T01:22:25;9.25;;;4.60;;
38132;SDS011;23948;43.252;26.572;2023-06-01T01:27:30;8.20;;;4.20;;
38132;SDS011;23948;43.252;26.572;2023-06-01T01:30:02;7.55;;;3.92;;
38132;SDS011;23948;43.252;26.572;2023-06-01T01:32:30;10.82;;;4.57;;
38132;SDS011;23948;43.252;26.572;2023-06-01T01:34:56;8.45;;;4.22;;
38132;SDS011;23948;43.252;26.572;2023-06-01T01:37:22;10.45;;;4.28;;
38132;SDS011;23948;43.252;26.572;2023-06-01T01:39:48;6.85;;;3.63;;
38132;SDS011;23948;43.252;26.572;2023-06-01T01:42:13;7.78;;;3.65;;
38132;SDS011;23948;43.252;26.572;2023-06-01T01:44:38;11.82;;;4.05;;
38132;SDS011;23948;43.252;26.572;2023-06-01T01:47:05;7.60;;;3.35;;
38132;SDS011;23948;43.252;26.572;2023-06-01T01:49:37;9.27;;;3.90;;
38132;SDS011;23948;43.252;26.572;2023-06-01T01:52:07;7.07;;;3.83;;
38132;SDS011;23948;43.252;26.572;2023-06-01T01:54:37;6.57;;;3.58;;
38132;SDS011;23948;43.252;26.572;2023-06-01T01:57:02;5.88;;;3.47;;
38132;SDS011;23948;43.252;26.572;2023-06-01T01:59:28;6.88;;;3.78;;
38132;SDS011;23948;43.252;26.572;2023-06-01T02:01:54;7.50;;;3.40;;
38132;SDS011;23948;43.252;26.572;2023-06-01T02:04:21;6.80;;;3.92;;
38132;SDS011;23948;43.252;26.572;2023-06-01T02:06:46;9.25;;;3.53;;
38132;SDS011;23948;43.252;26.572;2023-06-01T02:09:11;7.47;;;3.97;;
38132;SDS011;23948;43.252;26.572;2023-06-01T02:11:37;7.63;;;3.88;;
38132;SDS011;23948;43.252;26.572;2023-06-01T02:14:02;6.65;;;3.80;;
38132;SDS011;23948;43.252;26.572;2023-06-01T02:16:27;8.30;;;4.03;;
38132;SDS011;23948;43.252;26.572;2023-06-01T02:18:53;9.02;;;4.13;;
38132;SDS011;23948;43.252;26.572;2023-06-01T02:21:18;12.55;;;4.50;;
38132;SDS011;23948;43.252;26.572;2023-06-01T02:23:44;12.82;;;4.68;;
38132;SDS011;23948;43.252;26.572;2023-06-01T02:26:09;11.80;;;4.88;;
38132;SDS011;23948;43.252;26.572;2023-06-01T02:28:38;10.45;;;4.28;;
38132;SDS011;23948;43.252;26.572;2023-06-01T02:31:03;11.18;;;4.55;;
38132;SDS011;23948;43.252;26.572;2023-06-01T02:33:29;15.30;;;5.32;;
38132;SDS011;23948;43.252;26.572;2023-06-01T02:35:54;11.38;;;4.50;;
38132;SDS011;23948;43.252;26.572;2023-06-01T02:38:19;8.55;;;4.63;;
38132;SDS011;23948;43.252;26.572;2023-06-01T02:40:44;9.68;;;4.60;;
38132;SDS011;23948;43.252;26.572;2023-06-01T02:43:10;10.57;;;4.35;;
38132;SDS011;23948;43.252;26.572;2023-06-01T02:45:35;9.88;;;4.40;;
38132;SDS011;23948;43.252;26.572;2023-06-01T02:48:00;8.85;;;4.45;;
38132;SDS011;23948;43.252;26.572;2023-06-01T02:50:26;10.13;;;4.30;;
38132;SDS011;23948;43.252;26.572;2023-06-01T02:52:51;13.35;;;4.68;;
38132;SDS011;23948;43.252;26.572;2023-06-01T02:55:17;9.60;;;4.05;;
38132;SDS011;23948;43.252;26.572;2023-06-01T02:57:42;9.95;;;4.43;;
38132;SDS011;23948;43.252;26.572;2023-06-01T03:00:07;8.00;;;4.25;;
38132;SDS011;23948;43.252;26.572;2023-06-01T03:02:47;16.23;;;6.15;;
38132;SDS011;23948;43.252;26.572;2023-06-01T03:05:12;13.23;;;5.72;;
38132;SDS011;23948;43.252;26.572;2023-06-01T03:07:39;10.23;;;5.28;;
38132;SDS011;23948;43.252;26.572;2023-06-01T03:10:05;23.90;;;6.32;;
38132;SDS011;23948;43.252;26.572;2023-06-01T03:12:31;19.05;;;5.78;;
38132;SDS011;23948;43.252;26.572;2023-06-01T03:14:57;14.65;;;5.45;;
38132;SDS011;23948;43.252;26.572;2023-06-01T03:17:22;26.08;;;6.35;;
38132;SDS011;23948;43.252;26.572;2023-06-01T03:19:47;23.27;;;5.93;;
38132;SDS011;23948;43.252;26.572;2023-06-01T03:22:12;16.48;;;5.55;;
38132;SDS011;23948;43.252;26.572;2023-06-01T03:24:38;13.13;;;5.85;;
38132;SDS011;23948;43.252;26.572;2023-06-01T03:27:06;19.30;;;5.43;;
38132;SDS011;23948;43.252;26.572;2023-06-01T03:29:31;24.95;;;6.10;;
38132;SDS011;23948;43.252;26.572;2023-06-01T03:31:57;13.05;;;5.40;;
38132;SDS011;23948;43.252;26.572;2023-06-01T03:34:22;19.10;;;6.30;;
38132;SDS011;23948;43.252;26.572;2023-06-01T03:36:47;15.35;;;5.57;;
38132;SDS011;23948;43.252;26.572;2023-06-01T03:39:13;9.93;;;5.90;;
38132;SDS011;23948;43.252;26.572;2023-06-01T03:41:38;10.45;;;4.90;;
38132;SDS011;23948;43.252;26.572;2023-06-01T03:44:04;13.35;;;6.30;;
38132;SDS011;23948;43.252;26.572;2023-06-01T03:46:29;19.73;;;8.43;;
38132;SDS011;23948;43.252;26.572;2023-06-01T03:48:54;12.98;;;9.20;;
38132;SDS011;23948;43.252;26.572;2023-06-01T03:51:20;13.90;;;7.32;;
38132;SDS011;23948;43.252;26.572;2023-06-01T03:53:45;11.18;;;6.32;;
38132;SDS011;23948;43.252;26.572;2023-06-01T03:56:11;13.10;;;6.30;;
38132;SDS011;23948;43.252;26.572;2023-06-01T03:58:36;12.13;;;5.35;;
38132;SDS011;23948;43.252;26.572;2023-06-01T04:01:01;7.65;;;4.68;;
38132;SDS011;23948;43.252;26.572;2023-06-01T04:03:27;9.63;;;5.15;;
38132;SDS011;23948;43.252;26.572;2023-06-01T04:05:52;14.00;;;6.20;;
38132;SDS011;23948;43.252;26.572;2023-06-01T04:08:24;12.40;;;6.45;;
38132;SDS011;23948;43.252;26.572;2023-06-01T04:10:49;17.90;;;6.45;;
38132;SDS011;23948;43.252;26.572;2023-06-01T04:13:15;14.70;;;5.70;;
38132;SDS011;23948;43.252;26.572;2023-06-01T04:15:40;11.15;;;4.95;;
38132;SDS011;23948;43.252;26.572;2023-06-01T04:18:06;7.63;;;4.50;;
38132;SDS011;23948;43.252;26.572;2023-06-01T04:20:31;10.55;;;5.20;;
38132;SDS011;23948;43.252;26.572;2023-06-01T04:22:57;14.32;;;5.38;;
38132;SDS011;23948;43.252;26.572;2023-06-01T04:25:23;14.20;;;5.57;;
38132;SDS011;23948;43.252;26.572;2023-06-01T04:27:48;16.83;;;5.95;;
38132;SDS011;23948;43.252;26.572;2023-06-01T04:30:16;16.50;;;6.53;;
38132;SDS011;23948;43.252;26.572;2023-06-01T04:32:41;17.63;;;6.20;;
38132;SDS011;23948;43.252;26.572;2023-06-01T04:35:09;22.17;;;7.65;;
38132;SDS011;23948;43.252;26.572;2023-06-01T04:37:34;19.77;;;7.57;;
38132;SDS011;23948;43.252;26.572;2023-06-01T04:40:01;16.70;;;6.70;;
38132;SDS011;23948;43.252;26.572;2023-06-01T04:42:26;12.30;;;6.60;;
38132;SDS011;23948;43.252;26.572;2023-06-01T04:44:53;19.80;;;7.25;;
38132;SDS011;23948;43.252;26.572;2023-06-01T04:47:18;14.63;;;6.57;;
38132;SDS011;23948;43.252;26.572;2023-06-01T04:49:46;12.70;;;6.88;;
38132;SDS011;23948;43.252;26.572;2023-06-01T04:52:11;15.90;;;6.78;;
38132;SDS011;23948;43.252;26.572;2023-06-01T04:54:37;17.08;;;7.43;;
38132;SDS011;23948;43.252;26.572;2023-06-01T04:57:02;16.88;;;7.53;;
38132;SDS011;23948;43.252;26.572;2023-06-01T04:59:31;17.30;;;8.00;;
38132;SDS011;23948;43.252;26.572;2023-06-01T05:01:56;17.45;;;9.68;;
38132;SDS011;23948;43.252;26.572;2023-06-01T05:04:21;16.73;;;9.77;;
38132;SDS011;23948;43.252;26.572;2023-06-01T05:06:46;18.08;;;10.55;;
38132;SDS011;23948;43.252;26.572;2023-06-01T05:09:12;16.95;;;8.98;;
38132;SDS011;23948;43.252;26.572;2023-06-01T05:11:38;22.58;;;10.50;;
38132;SDS011;23948;43.252;26.572;2023-06-01T05:14:03;15.07;;;8.65;;
38132;SDS011;23948;43.252;26.572;2023-06-01T05:16:28;23.17;;;9.73;;
38132;SDS011;23948;43.252;26.572;2023-06-01T05:18:54;16.38;;;8.43;;
38132;SDS011;23948;43.252;26.572;2023-06-01T05:21:20;18.17;;;8.90;;
38132;SDS011;23948;43.252;26.572;2023-06-01T05:23:46;22.35;;;8.82;;
38132;SDS011;23948;43.252;26.572;2023-06-01T05:26:11;16.60;;;9.40;;
38132;SDS011;23948;43.252;26.572;2023-06-01T05:28:37;21.30;;;9.20;;
38132;SDS011;23948;43.252;26.572;2023-06-01T05:31:02;22.33;;;9.68;;
38132;SDS011;23948;43.252;26.572;2023-06-01T05:33:27;24.85;;;10.73;;
38132;SDS011;23948;43.252;26.572;2023-06-01T05:35:53;20.63;;;9.07;;
38132;SDS011;23948;43.252;26.572;2023-06-01T05:38:18;16.83;;;8.57;;
38132;SDS011;23948;43.252;26.572;2023-06-01T05:40:44;17.20;;;9.55;;
38132;SDS011;23948;43.252;26.572;2023-06-01T05:43:09;25.55;;;9.38;;
38132;SDS011;23948;43.252;26.572;2023-06-01T05:45:34;21.52;;;8.65;;
38132;SDS011;23948;43.252;26.572;2023-06-01T05:48:00;18.33;;;8.30;;
38132;SDS011;23948;43.252;26.572;2023-06-01T05:50:25;21.55;;;10.20;;
38132;SDS011;23948;43.252;26.572;2023-06-01T05:52:51;14.88;;;10.20;;
38132;SDS011;23948;43.252;26.572;2023-06-01T05:55:16;21.65;;;10.75;;
38132;SDS011;23948;43.252;26.572;2023-06-01T05:57:41;16.33;;;10.25;;
38132;SDS011;23948;43.252;26.572;2023-06-01T06:00:07;20.27;;;9.88;;
38132;SDS011;23948;43.252;26.572;2023-06-01T06:02:36;14.65;;;10.10;;
38132;SDS011;23948;43.252;26.572;2023-06-01T06:05:01;15.10;;;9.63;;
38132;SDS011;23948;43.252;26.572;2023-06-01T06:07:29;16.90;;;9.90;;
38132;SDS011;23948;43.252;26.572;2023-06-01T06:09:54;17.88;;;9.52;;
38132;SDS011;23948;43.252;26.572;2023-06-01T06:12:19;16.45;;;10.50;;
38132;SDS011;23948;43.252;26.572;2023-06-01T06:14:45;15.77;;;9.20;;
38132;SDS011;23948;43.252;26.572;2023-06-01T06:17:10;13.82;;;8.80;;
38132;SDS011;23948;43.252;26.572;2023-06-01T06:19:36;14.50;;;8.00;;
38132;SDS011;23948;43.252;26.572;2023-06-01T06:22:02;14.07;;;7.68;;
38132;SDS011;23948;43.252;26.572;2023-06-01T06:24:28;11.95;;;7.50;;
38132;SDS011;23948;43.252;26.572;2023-06-01T06:26:53;14.88;;;7.28;;
38132;SDS011;23948;43.252;26.572;2023-06-01T06:29:18;11.05;;;6.45;;
38132;SDS011;23948;43.252;26.572;2023-06-01T06:31:44;14.00;;;6.68;;
38132;SDS011;23948;43.252;26.572;2023-06-01T06:34:11;15.13;;;6.80;;
38132;SDS011;23948;43.252;26.572;2023-06-01T06:36:36;20.95;;;6.93;;
38132;SDS011;23948;43.252;26.572;2023-06-01T06:39:01;13.60;;;7.40;;
38132;SDS011;23948;43.252;26.572;2023-06-01T06:41:27;20.08;;;10.40;;
38132;SDS011;23948;43.252;26.572;2023-06-01T06:43:53;15.50;;;7.40;;
38132;SDS011;23948;43.252;26.572;2023-06-01T06:46:18;15.00;;;6.72;;
38132;SDS011;23948;43.252;26.572;2023-06-01T06:48:44;10.90;;;6.68;;
38132;SDS011;23948;43.252;26.572;2023-06-01T06:51:09;14.00;;;6.50;;
38132;SDS011;23948;43.252;26.572;2023-06-01T06:53:34;12.85;;;6.32;;
38132;SDS011;23948;43.252;26.572;2023-06-01T06:56:00;14.95;;;6.30;;
38132;SDS011;23948;43.252;26.572;2023-06-01T06:58:25;12.10;;;6.60;;
38132;SDS011;23948;43.252;26.572;2023-06-01T07:00:51;11.82;;;6.43;;
38132;SDS011;23948;43.252;26.572;2023-06-01T07:03:16;12.73;;;6.45;;
38132;SDS011;23948;43.252;26.572;2023-06-01T07:05:42;11.52;;;6.50;;
38132;SDS011;23948;43.252;26.572;2023-06-01T07:08:09;14.50;;;6.22;;
38132;SDS011;23948;43.252;26.572;2023-06-01T07:10:35;13.18;;;6.38;;
38132;SDS011;23948;43.252;26.572;2023-06-01T07:13:00;13.85;;;6.07;;
38132;SDS011;23948;43.252;26.572;2023-06-01T07:15:25;16.33;;;5.70;;
38132;SDS011;23948;43.252;26.572;2023-06-01T07:17:51;12.90;;;5.70;;
38132;SDS011;23948;43.252;26.572;2023-06-01T07:20:16;13.48;;;4.93;;
38132;SDS011;23948;43.252;26.572;2023-06-01T07:22:41;10.25;;;4.78;;
38132;SDS011;23948;43.252;26.572;2023-06-01T07:25:08;9.68;;;5.20;;
38132;SDS011;23948;43.252;26.572;2023-06-01T07:27:34;7.97;;;4.75;;
38132;SDS011;23948;43.252;26.572;2023-06-01T07:30:01;8.35;;;4.90;;
38132;SDS011;23948;43.252;26.572;2023-06-01T07:32:26;10.68;;;5.18;;
38132;SDS011;23948;43.252;26.572;2023-06-01T07:34:51;10.07;;;4.80;;
38132;SDS011;23948;43.252;26.572;2023-06-01T07:37:17;8.52;;;4.60;;
38132;SDS011;23948;43.252;26.572;2023-06-01T07:39:46;8.77;;;5.35;;
38132;SDS011;23948;43.252;26.572;2023-06-01T07:42:12;9.18;;;4.90;;
38132;SDS011;23948;43.252;26.572;2023-06-01T07:44:37;10.50;;;5.03;;
38132;SDS011;23948;43.252;26.572;2023-06-01T07:47:02;11.07;;;5.10;;
38132;SDS011;23948;43.252;26.572;2023-06-01T07:49:28;7.75;;;4.80;;
38132;SDS011;23948;43.252;26.572;2023-06-01T07:51:54;13.65;;;5.25;;
38132;SDS011;23948;43.252;26.572;2023-06-01T07:54:20;10.00;;;4.63;;
38132;SDS011;23948;43.252;26.572;2023-06-01T07:56:45;10.88;;;4.90;;
38132;SDS011;23948;43.252;26.572;2023-06-01T07:59:12;9.60;;;4.68;;
38132;SDS011;23948;43.252;26.572;2023-06-01T08:01:37;11.70;;;5.05;;
38132;SDS011;23948;43.252;26.572;2023-06-01T08:04:02;11.83;;;5.30;;
38132;SDS011;23948;43.252;26.572;2023-06-01T08:06:28;11.32;;;4.60;;
38132;SDS011;23948;43.252;26.572;2023-06-01T08:08:53;12.52;;;4.93;;
38132;SDS011;23948;43.252;26.572;2023-06-01T08:11:19;12.52;;;4.60;;
38132;SDS011;23948;43.252;26.572;2023-06-01T08:13:44;14.05;;;5.32;;
38132;SDS011;23948;43.252;26.572;2023-06-01T08:16:14;11.90;;;5.10;;
38132;SDS011;23948;43.252;26.572;2023-06-01T08:18:39;7.95;;;5.00;;
38132;SDS011;23948;43.252;26.572;2023-06-01T08:21:05;11.60;;;4.88;;
38132;SDS011;23948;43.252;26.572;2023-06-01T08:23:30;10.37;;;4.73;;
38132;SDS011;23948;43.252;26.572;2023-06-01T08:25:55;12.63;;;4.60;;
38132;SDS011;23948;43.252;26.572;2023-06-01T08:28:20;10.37;;;4.60;;
38132;SDS011;23948;43.252;26.572;2023-06-01T08:30:46;9.48;;;4.75;;
38132;SDS011;23948;43.252;26.572;2023-06-01T08:33:11;9.90;;;4.75;;
38132;SDS011;23948;43.252;26.572;2023-06-01T08:35:37;9.33;;;4.50;;
38132;SDS011;23948;43.252;26.572;2023-06-01T08:38:02;12.23;;;4.97;;
38132;SDS011;23948;43.252;26.572;2023-06-01T08:40:28;14.68;;;4.55;;
38132;SDS011;23948;43.252;26.572;2023-06-01T08:45:19;6.35;;;4.25;;
38132;SDS011;23948;43.252;26.572;2023-06-01T08:47:45;11.82;;;4.60;;
38132;SDS011;23948;43.252;26.572;2023-06-01T08:50:11;7.00;;;4.10;;
38132;SDS011;23948;43.252;26.572;2023-06-01T08:52:36;10.48;;;4.78;;
38132;SDS011;23948;43.252;26.572;2023-06-01T08:55:02;15.10;;;4.65;;
38132;SDS011;23948;43.252;26.572;2023-06-01T08:57:28;8.10;;;3.65;;
38132;SDS011;23948;43.252;26.572;2023-06-01T08:59:55;6.95;;;3.58;;
38132;SDS011;23948;43.252;26.572;2023-06-01T09:02:20;8.80;;;3.83;;
38132;SDS011;23948;43.252;26.572;2023-06-01T09:04:45;11.52;;;3.88;;
38132;SDS011;23948;43.252;26.572;2023-06-01T09:07:11;6.83;;;3.43;;
38132;SDS011;23948;43.252;26.572;2023-06-01T09:09:37;5.75;;;3.78;;
38132;SDS011;23948;43.252;26.572;2023-06-01T09:14:46;7.72;;;4.00;;
38132;SDS011;23948;43.252;26.572;2023-06-01T09:17:15;7.78;;;3.78;;
38132;SDS011;23948;43.252;26.572;2023-06-01T09:19:45;7.40;;;4.25;;
38132;SDS011;23948;43.252;26.572;2023-06-01T09:22:10;6.43;;;3.95;;
38132;SDS011;23948;43.252;26.572;2023-06-01T09:24:36;7.63;;;3.90;;
38132;SDS011;23948;43.252;26.572;2023-06-01T09:27:02;6.32;;;3.80;;
38132;SDS011;23948;43.252;26.572;2023-06-01T09:29:28;10.55;;;4.20;;
38132;SDS011;23948;43.252;26.572;2023-06-01T09:31:53;9.05;;;3.80;;
38132;SDS011;23948;43.252;26.572;2023-06-01T09:34:19;6.90;;;3.67;;
38132;SDS011;23948;43.252;26.572;2023-06-01T09:36:45;8.93;;;3.63;;
38132;SDS011;23948;43.252;26.572;2023-06-01T09:39:12;5.43;;;3.25;;
38132;SDS011;23948;43.252;26.572;2023-06-01T09:41:55;8.52;;;4.13;;
38132;SDS011;23948;43.252;26.572;2023-06-01T09:47:00;6.03;;;3.35;;
38132;SDS011;23948;43.252;26.572;2023-06-01T09:52:13;7.00;;;3.70;;
38132;SDS011;23948;43.252;26.572;2023-06-01T09:54:49;7.00;;;3.60;;
38132;SDS011;23948;43.252;26.572;2023-06-01T09:57:22;14.55;;;4.47;;
38132;SDS011;23948;43.252;26.572;2023-06-01T09:59:48;7.20;;;3.90;;
38132;SDS011;23948;43.252;26.572;2023-06-01T10:02:17;6.85;;;3.92;;
38132;SDS011;23948;43.252;26.572;2023-06-01T10:05:01;7.53;;;3.65;;
38132;SDS011;23948;43.252;26.572;2023-06-01T10:07:27;7.40;;;4.00;;
38132;SDS011;23948;43.252;26.572;2023-06-01T10:09:56;8.45;;;4.30;;
38132;SDS011;23948;43.252;26.572;2023-06-01T10:12:22;6.22;;;3.65;;
38132;SDS011;23948;43.252;26.572;2023-06-01T10:14:48;6.85;;;4.40;;
38132;SDS011;23948;43.252;26.572;2023-06-01T10:17:15;6.88;;;3.95;;
38132;SDS011;23948;43.252;26.572;2023-06-01T10:19:41;6.22;;;3.53;;
38132;SDS011;23948;43.252;26.572;2023-06-01T10:22:07;7.43;;;4.13;;
38132;SDS011;23948;43.252;26.572;2023-06-01T10:24:34;8.05;;;4.00;;
38132;SDS011;23948;43.252;26.572;2023-06-01T10:29:30;7.10;;;4.53;;
38132;SDS011;23948;43.252;26.572;2023-06-01T10:31:56;7.28;;;4.10;;
38132;SDS011;23948;43.252;26.572;2023-06-01T10:34:41;6.05;;;3.72;;
38132;SDS011;23948;43.252;26.572;2023-06-01T10:39:33;6.10;;;3.50;;
38132;SDS011;23948;43.252;26.572;2023-06-01T10:44:44;7.68;;;3.80;;
38132;SDS011;23948;43.252;26.572;2023-06-01T10:57:38;7.55;;;3.60;;
38132;SDS011;23948;43.252;26.572;2023-06-01T11:00:10;8.13;;;4.38;;
38132;SDS011;23948;43.252;26.572;2023-06-01T11:08:05;7.78;;;4.00;;
38132;SDS011;23948;43.252;26.572;2023-06-01T11:13:14;9.07;;;4.00;;
38132;SDS011;23948;43.252;26.572;2023-06-01T11:18:43;8.70;;;4.30;;
38132;SDS011;23948;43.252;26.572;2023-06-01T11:23:41;7.35;;;4.43;;
38132;SDS011;23948;43.252;26.572;2023-06-01T11:26:07;9.88;;;4.28;;
38132;SDS011;23948;43.252;26.572;2023-06-01T11:28:32;8.77;;;4.28;;
38132;SDS011;23948;43.252;26.572;2023-06-01T11:30:59;7.15;;;3.92;;
38132;SDS011;23948;43.252;26.572;2023-06-01T11:33:26;10.43;;;4.20;;
38132;SDS011;23948;43.252;26.572;2023-06-01T11:36:02;7.93;;;4.10;;
38132;SDS011;23948;43.252;26.572;2023-06-01T11:38:33;7.45;;;4.13;;
38132;SDS011;23948;43.252;26.572;2023-06-01T11:41:00;6.72;;;3.90;;
38132;SDS011;23948;43.252;26.572;2023-06-01T11:43:27;8.68;;;4.00;;
38132;SDS011;23948;43.252;26.572;2023-06-01T11:46:05;8.57;;;3.72;;
38132;SDS011;23948;43.252;26.572;2023-06-01T11:48:31;9.60;;;4.43;;
38132;SDS011;23948;43.252;26.572;2023-06-01T11:50:57;10.80;;;4.40;;
38132;SDS011;23948;43.252;26.572;2023-06-01T11:53:25;9.18;;;4.00;;
38132;SDS011;23948;43.252;26.572;2023-06-01T11:55:54;7.25;;;4.15;;
38132;SDS011;23948;43.252;26.572;2023-06-01T11:58:29;9.18;;;4.10;;
38132;SDS011;23948;43.252;26.572;2023-06-01T12:00:55;13.55;;;4.80;;
38132;SDS011;23948;43.252;26.572;2023-06-01T12:03:22;7.85;;;4.38;;
38132;SDS011;23948;43.252;26.572;2023-06-01T12:05:49;9.32;;;4.45;;
38132;SDS011;23948;43.252;26.572;2023-06-01T12:08:15;7.97;;;4.60;;
38132;SDS011;23948;43.252;26.572;2023-06-01T12:10:42;8.30;;;4.22;;
38132;SDS011;23948;43.252;26.572;2023-06-01T12:13:09;10.45;;;4.40;;
38132;SDS011;23948;43.252;26.572;2023-06-01T12:15:34;9.88;;;4.45;;
38132;SDS011;23948;43.252;26.572;2023-06-01T12:17:59;11.80;;;4.35;;
38132;SDS011;23948;43.252;26.572;2023-06-01T12:20:34;9.07;;;4.60;;
38132;SDS011;23948;43.252;26.572;2023-06-01T12:23:01;11.15;;;4.30;;
38132;SDS011;23948;43.252;26.572;2023-06-01T12:25:28;9.10;;;4.32;;
38132;SDS011;23948;43.252;26.572;2023-06-01T12:30:25;8.15;;;4.22;;
38132;SDS011;23948;43.252;26.572;2023-06-01T12:32:51;10.77;;;4.78;;
38132;SDS011;23948;43.252;26.572;2023-06-01T12:35:16;6.53;;;3.80;;
38132;SDS011;23948;43.252;26.572;2023-06-01T12:37:43;8.15;;;4.00;;
38132;SDS011;23948;43.252;26.572;2023-06-01T12:40:08;7.97;;;3.90;;
38132;SDS011;23948;43.252;26.572;2023-06-01T12:42:34;6.68;;;3.90;;
38132;SDS011;23948;43.252;26.572;2023-06-01T12:45:03;5.80;;;3.60;;
38132;SDS011;23948;43.252;26.572;2023-06-01T12:50:03;7.28;;;3.88;;
38132;SDS011;23948;43.252;26.572;2023-06-01T12:52:28;8.25;;;3.95;;
38132;SDS011;23948;43.252;26.572;2023-06-01T12:54:54;9.65;;;4.15;;
38132;SDS011;23948;43.252;26.572;2023-06-01T12:57:19;9.27;;;3.83;;
38132;SDS011;23948;43.252;26.572;2023-06-01T12:59:45;9.82;;;3.70;;
38132;SDS011;23948;43.252;26.572;2023-06-01T13:02:10;8.43;;;4.33;;
38132;SDS011;23948;43.252;26.572;2023-06-01T13:04:35;10.57;;;4.60;;
38132;SDS011;23948;43.252;26.572;2023-06-01T13:07:01;7.57;;;3.85;;
38132;SDS011;23948;43.252;26.572;2023-06-01T13:09:27;7.53;;;3.92;;
38132;SDS011;23948;43.252;26.572;2023-06-01T13:11:53;6.85;;;4.05;;
38132;SDS011;23948;43.252;26.572;2023-06-01T13:14:18;7.07;;;3.85;;
38132;SDS011;23948;43.252;26.572;2023-06-01T13:16:45;10.43;;;3.97;;
38132;SDS011;23948;43.252;26.572;2023-06-01T13:19:13;6.82;;;3.78;;
38132;SDS011;23948;43.252;26.572;2023-06-01T13:21:39;6.97;;;4.00;;
38132;SDS011;23948;43.252;26.572;2023-06-01T13:24:04;7.93;;;3.75;;
38132;SDS011;23948;43.252;26.572;2023-06-01T13:26:30;7.15;;;3.30;;
38132;SDS011;23948;43.252;26.572;2023-06-01T13:28:55;8.07;;;4.00;;
38132;SDS011;23948;43.252;26.572;2023-06-01T13:31:20;5.90;;;3.63;;
38132;SDS011;23948;43.252;26.572;2023-06-01T13:33:46;7.97;;;3.75;;
38132;SDS011;23948;43.252;26.572;2023-06-01T13:36:11;7.05;;;4.00;;
38132;SDS011;23948;43.252;26.572;2023-06-01T13:38:36;6.80;;;3.88;;
38132;SDS011;23948;43.252;26.572;2023-06-01T13:41:02;5.78;;;3.60;;
38132;SDS011;23948;43.252;26.572;2023-06-01T13:43:27;7.80;;;3.78;;
38132;SDS011;23948;43.252;26.572;2023-06-01T13:45:53;8.20;;;3.65;;
38132;SDS011;23948;43.252;26.572;2023-06-01T13:48:18;8.05;;;3.90;;
38132;SDS011;23948;43.252;26.572;2023-06-01T13:50:43;7.40;;;3.72;;
38132;SDS011;23948;43.252;26.572;2023-06-01T13:53:09;5.82;;;3.58;;
38132;SDS011;23948;43.252;26.572;2023-06-01T13:55:34;7.55;;;3.90;;
38132;SDS011;23948;43.252;26.572;2023-06-01T13:58:00;7.18;;;3.42;;
38132;SDS011;23948;43.252;26.572;2023-06-01T14:00:25;7.40;;;3.47;;
38132;SDS011;23948;43.252;26.572;2023-06-01T14:02:52;6.40;;;4.15;;
38132;SDS011;23948;43.252;26.572;2023-06-01T14:05:18;9.63;;;3.78;;
38132;SDS011;23948;43.252;26.572;2023-06-01T14:07:43;6.63;;;3.78;;
38132;SDS011;23948;43.252;26.572;2023-06-01T14:10:10;8.32;;;3.85;;
38132;SDS011;23948;43.252;26.572;2023-06-01T14:12:36;8.63;;;4.50;;
38132;SDS011;23948;43.252;26.572;2023-06-01T14:15:01;29.80;;;4.53;;
38132;SDS011;23948;43.252;26.572;2023-06-01T14:17:26;12.13;;;4.38;;
38132;SDS011;23948;43.252;26.572;2023-06-01T14:19:52;6.93;;;3.92;;
38132;SDS011;23948;43.252;26.572;2023-06-01T14:22:17;11.23;;;4.68;;
38132;SDS011;23948;43.252;26.572;2023-06-01T14:24:42;8.43;;;4.10;;
38132;SDS011;23948;43.252;26.572;2023-06-01T14:27:08;7.23;;;4.40;;
38132;SDS011;23948;43.252;26.572;2023-06-01T14:29:33;6.90;;;4.20;;
38132;SDS011;23948;43.252;26.572;2023-06-01T14:31:58;6.75;;;4.38;;
38132;SDS011;23948;43.252;26.572;2023-06-01T14:34:23;6.40;;;4.15;;
38132;SDS011;23948;43.252;26.572;2023-06-01T14:36:49;8.27;;;4.55;;
38132;SDS011;23948;43.252;26.572;2023-06-01T14:39:14;9.40;;;4.60;;
38132;SDS011;23948;43.252;26.572;2023-06-01T14:41:41;9.35;;;4.28;;
38132;SDS011;23948;43.252;26.572;2023-06-01T14:44:06;7.40;;;3.70;;
38132;SDS011;23948;43.252;26.572;2023-06-01T14:46:31;6.55;;;3.63;;
38132;SDS011;23948;43.252;26.572;2023-06-01T14:48:57;8.13;;;4.70;;
38132;SDS011;23948;43.252;26.572;2023-06-01T14:51:24;8.02;;;4.30;;
38132;SDS011;23948;43.252;26.572;2023-06-01T14:53:50;10.80;;;4.40;;
38132;SDS011;23948;43.252;26.572;2023-06-01T14:56:15;8.00;;;4.57;;
38132;SDS011;23948;43.252;26.572;2023-06-01T14:58:40;7.53;;;4.72;;
38132;SDS011;23948;43.252;26.572;2023-06-01T15:01:06;9.60;;;4.63;;
38132;SDS011;23948;43.252;26.572;2023-06-01T15:03:31;7.13;;;4.70;;
38132;SDS011;23948;43.252;26.572;2023-06-01T15:05:57;8.35;;;4.50;;
38132;SDS011;23948;43.252;26.572;2023-06-01T15:08:22;6.70;;;4.40;;
38132;SDS011;23948;43.252;26.572;2023-06-01T15:10:48;10.68;;;4.68;;
38132;SDS011;23948;43.252;26.572;2023-06-01T15:13:13;17.92;;;9.80;;
38132;SDS011;23948;43.252;26.572;2023-06-01T15:15:39;16.23;;;9.43;;
38132;SDS011;23948;43.252;26.572;2023-06-01T15:18:04;12.80;;;6.35;;